Terminal Aerodrome Forecast
Issued by NWS

Home | Current Version | Previous Version | Graphics & Text | Print | Product List | Glossary On
Versions: 1 2 3 4 5 6 7 8 9 10 11 12 13 14 15 16 17
000
FTUS43 KICT 230537
TAFSLN
TAF
KSLN 230537Z 2306/2406 29013KT P6SM SCT040 BKN060
     FM231000 29014KT P6SM SCT020 OVC030
     FM231600 34018G28KT P6SM BKN018 OVC030
     FM232000 34020G30KT 5SM -RASN BKN009 OVC020=

USA.gov is the U.S. government's official web portal to all federal, state and local government web resources and services.